Time;durP1;ratioP1;P1;durP2;ratioP2;P2;SDS_P1;SDS_P2;PMS_P1;PMS_P2;Temp;Humidity;BMP_temperature;BMP_pressure;BME280_temperature;BME280_humidity;BME280_pressure;Samples;Min_cycle;Max_cycle;Signal;HPM_P1;HPM_P2
2023/06/12 00:02:08;;;;;;;8.03;7.40;;;19.90;1.00;;;;;;5098238;28;20573;-52
2023/06/12 00:04:34;;;;;;;7.60;7.00;;;20.00;1.00;;;;;;5098557;28;20750;-51
2023/06/12 00:07:01;;;;;;;8.50;7.80;;;20.00;1.00;;;;;;5098905;28;20563;-50
2023/06/12 00:09:27;;;;;;;7.97;7.27;;;20.00;1.00;;;;;;5098711;28;20200;-51
2023/06/12 00:11:53;;;;;;;7.53;6.83;;;20.00;1.00;;;;;;5097436;28;20446;-52
2023/06/12 00:14:18;;;;;;;7.57;6.93;;;19.90;1.00;;;;;;5098551;28;20248;-51
2023/06/12 00:16:44;;;;;;;8.00;7.40;;;19.90;1.00;;;;;;5099404;28;20173;-50
2023/06/12 00:19:11;;;;;;;8.03;7.43;;;19.90;1.00;;;;;;5098576;28;20172;-52
2023/06/12 00:21:36;;;;;;;7.77;7.17;;;19.80;1.00;;;;;;5097229;28;20337;-49
2023/06/12 00:24:08;;;;;;;8.60;7.90;;;19.70;1.00;;;;;;5098509;28;20537;-50
2023/06/12 00:26:37;;;;;;;8.40;7.27;;;19.70;1.00;;;;;;5097398;28;20180;-51
2023/06/12 00:29:03;;;;;;;8.03;7.33;;;19.70;1.00;;;;;;5098055;28;20422;-53
2023/06/12 00:31:28;;;;;;;8.70;7.93;;;19.60;1.00;;;;;;5098254;28;20503;-53
2023/06/12 00:33:54;;;;;;;8.23;7.53;;;19.60;1.00;;;;;;5097045;28;20259;-50
2023/06/12 00:36:19;;;;;;;7.40;6.77;;;19.70;1.00;;;;;;5098088;28;20260;-48
2023/06/12 00:38:45;;;;;;;7.80;7.20;;;19.70;1.00;;;;;;5097231;28;20172;-50
2023/06/12 00:41:11;;;;;;;7.80;7.20;;;19.70;1.00;;;;;;5097652;28;20280;-51
2023/06/12 00:43:36;;;;;;;8.00;7.40;;;19.60;1.00;;;;;;5096321;28;20200;-50
2023/06/12 00:46:03;;;;;;;7.63;6.93;;;19.70;1.00;;;;;;5096023;28;20527;-51
2023/06/12 00:48:29;;;;;;;7.53;6.83;;;19.70;1.00;;;;;;5096308;28;20445;-51
2023/06/12 00:50:56;;;;;;;8.10;7.50;;;19.70;1.00;;;;;;5095446;28;20891;-49
2023/06/12 00:53:21;;;;;;;7.97;7.27;;;19.70;1.00;;;;;;5096599;28;20538;-48
2023/06/12 00:55:47;;;;;;;8.00;7.20;;;19.50;1.00;;;;;;5096557;28;20465;-52
2023/06/12 00:58:13;;;;;;;7.47;6.87;;;19.50;1.00;;;;;;5097602;28;20169;-50
2023/06/12 01:00:38;;;;;;;8.60;7.80;;;19.40;1.00;;;;;;5097615;28;20180;-49
2023/06/12 01:03:06;;;;;;;8.13;7.53;;;19.50;1.00;;;;;;5097419;28;20192;-52
2023/06/12 01:05:36;;;;;;;8.20;7.40;;;19.50;1.00;;;;;;5096218;28;20808;-50
2023/06/12 01:08:20;;;;;;;8.77;7.97;;;19.40;1.00;;;;;;5097516;28;20429;-50
2023/06/12 01:10:51;;;;;;;7.70;7.10;;;19.30;1.00;;;;;;5097692;28;20461;-50
2023/06/12 01:13:19;;;;;;;8.23;7.57;;;19.30;1.00;;;;;;5097428;28;20422;-49
2023/06/12 01:15:44;;;;;;;8.00;7.40;;;19.30;1.00;;;;;;5096132;28;20405;-48
2023/06/12 01:18:10;;;;;;;8.57;7.87;;;19.20;1.00;;;;;;5097151;28;20423;-50
2023/06/12 01:20:36;;;;;;;7.80;7.20;;;19.20;1.00;;;;;;5097735;28;20218;-51
2023/06/12 01:23:28;;;;;;;7.57;6.97;;;19.20;1.00;;;;;;5097327;28;20200;-48
2023/06/12 01:26:25;;;;;;;8.67;7.97;;;19.10;1.00;;;;;;5097112;28;20422;-49
2023/06/12 01:29:48;;;;;;;8.23;7.57;;;19.10;1.00;;;;;;5093906;28;20689;-49
2023/06/12 01:32:16;;;;;;;8.33;7.63;;;19.10;1.00;;;;;;5055199;28;20428;-51
2023/06/12 01:34:51;;;;;;;7.73;6.83;;;19.00;1.00;;;;;;5055087;28;20819;-48
2023/06/12 01:37:31;;;;;;;7.43;6.80;;;19.10;1.00;;;;;;5082877;28;20444;-51
2023/06/12 01:39:59;;;;;;;7.97;7.23;;;19.10;1.00;;;;;;5096042;28;20418;-48
2023/06/12 01:42:26;;;;;;;8.67;7.97;;;19.20;1.00;;;;;;5096129;28;20438;-48
2023/06/12 01:44:52;;;;;;;8.07;7.37;;;19.10;1.00;;;;;;5094826;28;20491;-49
2023/06/12 01:47:19;;;;;;;7.70;7.10;;;19.10;1.00;;;;;;5096440;28;20430;-50
2023/06/12 01:49:45;;;;;;;7.67;6.97;;;19.20;1.00;;;;;;5096234;28;20255;-49
2023/06/12 01:52:10;;;;;;;7.80;7.20;;;19.10;1.00;;;;;;5094833;28;20502;-48
2023/06/12 01:54:36;;;;;;;8.73;8.03;;;19.10;1.00;;;;;;5096888;28;20189;-50
2023/06/12 01:57:02;;;;;;;8.20;7.50;;;19.10;1.00;;;;;;5096467;28;20672;-48
2023/06/12 01:59:27;;;;;;;8.40;7.80;;;19.10;1.00;;;;;;5096546;28;20261;-48
2023/06/12 02:01:53;;;;;;;8.40;7.70;;;19.10;1.00;;;;;;5095233;28;20746;-51
2023/06/12 02:04:19;;;;;;;7.90;7.30;;;19.10;1.00;;;;;;5096139;28;20244;-49
2023/06/12 02:06:45;;;;;;;8.37;7.67;;;19.00;1.00;;;;;;5096481;28;20176;-49
2023/06/12 02:09:11;;;;;;;7.50;6.90;;;19.00;1.00;;;;;;5095932;28;20484;-49
2023/06/12 02:11:36;;;;;;;7.73;7.13;;;19.00;1.00;;;;;;5095781;28;20426;-54
2023/06/12 02:14:02;;;;;;;7.60;6.90;;;19.00;1.00;;;;;;5095313;28;20191;-53
2023/06/12 02:16:28;;;;;;;7.67;7.07;;;19.00;1.00;;;;;;5095162;28;20419;-53
2023/06/12 02:18:54;;;;;;;8.20;7.60;;;19.00;1.00;;;;;;5094338;28;20184;-50
2023/06/12 02:21:19;;;;;;;7.50;6.80;;;18.80;1.00;;;;;;5094869;28;20188;-52
2023/06/12 02:23:45;;;;;;;7.90;7.20;;;18.80;1.00;;;;;;5095187;28;20430;-49
2023/06/12 02:26:10;;;;;;;8.13;7.50;;;18.70;1.00;;;;;;5095795;28;20271;-48
2023/06/12 02:28:39;;;;;;;8.57;7.77;;;18.80;1.00;;;;;;5095231;28;20184;-48
2023/06/12 02:31:05;;;;;;;7.93;7.33;;;18.80;1.00;;;;;;5095382;28;20280;-51
2023/06/12 02:33:31;;;;;;;8.37;7.67;;;18.70;1.00;;;;;;5094945;28;20434;-51
2023/06/12 02:35:57;;;;;;;8.87;7.30;;;18.70;1.00;;;;;;5094617;28;20196;-53
2023/06/12 02:38:22;;;;;;;7.93;7.33;;;18.70;1.00;;;;;;5094414;28;20433;-50
2023/06/12 02:40:48;;;;;;;7.73;7.13;;;18.70;1.00;;;;;;5094806;28;20200;-50
2023/06/12 02:43:13;;;;;;;7.50;6.83;;;18.70;1.00;;;;;;5094852;28;20539;-49
2023/06/12 02:45:39;;;;;;;7.93;7.33;;;18.70;1.00;;;;;;5094696;28;20184;-52
2023/06/12 02:48:05;;;;;;;7.70;7.10;;;18.60;1.00;;;;;;5093073;28;20195;-51
2023/06/12 02:50:30;;;;;;;8.13;7.30;;;18.60;1.00;;;;;;5091946;28;20280;-49
2023/06/12 02:52:56;;;;;;;8.03;7.43;;;18.60;1.00;;;;;;5092531;28;20282;-49
2023/06/12 02:55:22;;;;;;;7.70;7.17;;;18.60;1.00;;;;;;5091895;28;20335;-52
2023/06/12 02:57:47;;;;;;;8.30;7.60;;;18.60;1.00;;;;;;5092902;28;20156;-51
2023/06/12 03:00:14;;;;;;;8.13;7.53;;;18.60;1.00;;;;;;5093131;28;20271;-49
2023/06/12 03:02:42;;;;;;;7.47;6.77;;;18.60;1.00;;;;;;5095410;28;20208;-51
2023/06/12 03:05:12;;;;;;;8.20;7.40;;;18.70;1.00;;;;;;5097145;28;20534;-51
2023/06/12 03:07:42;;;;;;;7.70;7.10;;;18.70;1.00;;;;;;5098983;28;20526;-51
2023/06/12 03:10:08;;;;;;;7.60;6.90;;;18.70;1.00;;;;;;5099735;28;20493;-49
2023/06/12 03:12:34;;;;;;;10.43;7.87;;;18.60;1.00;;;;;;5099532;28;20846;-49
2023/06/12 03:15:01;;;;;;;8.57;7.87;;;18.60;1.00;;;;;;5106710;28;20462;-52
2023/06/12 03:17:27;;;;;;;7.97;7.37;;;18.60;1.00;;;;;;5119417;28;20827;-52
2023/06/12 03:19:53;;;;;;;8.00;7.20;;;18.50;1.00;;;;;;5113324;28;20743;-53
2023/06/12 03:22:18;;;;;;;8.60;7.80;;;18.50;1.00;;;;;;5098261;28;20422;-50
2023/06/12 03:24:44;;;;;;;8.53;7.73;;;18.40;1.00;;;;;;5098896;28;20500;-54
2023/06/12 03:27:10;;;;;;;8.03;7.40;;;18.50;1.00;;;;;;5098191;28;20185;-52
2023/06/12 03:29:36;;;;;;;8.30;7.60;;;18.40;1.00;;;;;;5099427;28;20208;-54
2023/06/12 03:32:01;;;;;;;7.87;7.17;;;18.40;1.00;;;;;;5105357;28;20422;-50
2023/06/12 03:34:28;;;;;;;7.80;7.20;;;18.40;1.00;;;;;;5118496;28;20614;-53
2023/06/12 03:36:54;;;;;;;8.47;7.87;;;18.40;1.00;;;;;;5117744;28;20184;-53
2023/06/12 03:39:20;;;;;;;8.67;7.97;;;18.40;1.00;;;;;;5117745;28;20459;-53
2023/06/12 03:41:55;;;;;;;8.40;7.70;;;18.30;1.00;;;;;;5118891;28;20439;-50
2023/06/12 03:44:21;;;;;;;7.60;7.00;;;18.40;1.00;;;;;;5117845;28;20448;-52
2023/06/12 03:46:47;;;;;;;9.40;7.20;;;18.40;1.00;;;;;;5117871;27;20819;-51
2023/06/12 03:49:12;;;;;;;7.80;7.20;;;18.40;1.00;;;;;;5118455;28;20891;-53
2023/06/12 03:51:38;;;;;;;7.53;6.93;;;18.50;1.00;;;;;;5119509;28;20247;-51
2023/06/12 03:54:05;;;;;;;8.20;7.40;;;18.40;1.00;;;;;;5118426;28;20191;-52
2023/06/12 03:56:30;;;;;;;7.43;6.83;;;18.50;1.00;;;;;;5116968;28;20184;-50
2023/06/12 03:58:56;;;;;;;8.40;7.70;;;18.40;1.00;;;;;;5118283;28;20430;-52
2023/06/12 04:01:22;;;;;;;8.40;7.77;;;18.50;1.00;;;;;;5117247;28;20521;-52
2023/06/12 04:03:48;;;;;;;8.63;6.93;;;18.50;1.00;;;;;;5117245;28;20406;-54
2023/06/12 04:06:14;;;;;;;8.23;7.47;;;18.60;1.00;;;;;;5117751;28;20566;-51
2023/06/12 04:08:40;;;;;;;9.13;8.37;;;18.60;1.00;;;;;;5109707;28;20434;-55
2023/06/12 04:11:09;;;;;;;8.60;7.60;;;18.70;1.00;;;;;;5096901;28;20723;-51
2023/06/12 04:13:35;;;;;;;7.90;7.20;;;18.80;1.00;;;;;;5096058;28;20816;-49
2023/06/12 04:16:02;;;;;;;8.93;8.17;;;18.80;1.00;;;;;;5094183;28;20419;-52
2023/06/12 04:18:28;;;;;;;8.70;8.00;;;18.80;1.00;;;;;;5099359;28;20436;-52
2023/06/12 04:20:55;;;;;;;7.97;7.37;;;18.80;1.00;;;;;;5110219;28;20438;-54
2023/06/12 04:23:20;;;;;;;7.40;6.80;;;18.80;1.00;;;;;;5114964;28;20203;-51
2023/06/12 04:25:48;;;;;;;8.00;7.40;;;18.80;1.00;;;;;;5109842;27;20756;-50
2023/06/12 04:28:16;;;;;;;8.03;7.33;;;18.90;1.00;;;;;;5107429;28;20240;-49
2023/06/12 04:30:44;;;;;;;7.87;7.17;;;19.00;1.00;;;;;;5113881;28;20778;-52
2023/06/12 04:33:11;;;;;;;8.00;7.40;;;19.00;1.00;;;;;;5115136;28;20765;-50
2023/06/12 04:35:37;;;;;;;7.63;7.03;;;19.10;1.00;;;;;;5098352;27;20438;-52
2023/06/12 04:38:05;;;;;;;7.33;6.63;;;19.20;1.00;;;;;;5094723;28;20430;-51
2023/06/12 04:40:35;;;;;;;8.27;7.53;;;19.20;1.00;;;;;;5094200;28;20480;-52
2023/06/12 04:43:03;;;;;;;8.43;7.73;;;19.30;1.00;;;;;;5094607;28;20855;-51
2023/06/12 04:45:32;;;;;;;8.43;7.73;;;19.30;1.00;;;;;;5106697;28;20804;-53
2023/06/12 04:47:58;;;;;;;7.43;6.73;;;19.40;1.00;;;;;;5114500;28;20433;-55
2023/06/12 04:50:25;;;;;;;9.07;8.27;;;19.40;1.00;;;;;;5112664;28;20470;-50
2023/06/12 04:52:52;;;;;;;7.83;7.23;;;19.50;1.00;;;;;;5113270;28;20670;-51
2023/06/12 04:55:22;;;;;;;7.30;6.80;;;19.60;1.00;;;;;;5114655;28;20665;-49
2023/06/12 04:57:52;;;;;;;8.47;7.77;;;19.60;1.00;;;;;;5116770;28;20738;-50
2023/06/12 05:00:21;;;;;;;8.40;7.67;;;19.70;1.00;;;;;;5111403;28;20751;-51
2023/06/12 05:02:47;;;;;;;8.70;8.00;;;19.70;1.00;;;;;;5113152;28;20477;-53
2023/06/12 05:05:12;;;;;;;8.27;7.57;;;19.80;1.00;;;;;;5113994;28;20448;-51
2023/06/12 05:07:41;;;;;;;7.50;6.90;;;19.80;1.00;;;;;;5111793;28;20336;-53
2023/06/12 05:10:07;;;;;;;8.60;7.93;;;19.80;1.00;;;;;;5114796;28;20203;-50
2023/06/12 05:12:32;;;;;;;7.50;6.90;;;19.80;1.00;;;;;;5113286;28;20490;-51
2023/06/12 05:15:01;;;;;;;8.30;7.60;;;19.90;1.00;;;;;;5114304;28;20183;-53
2023/06/12 05:17:27;;;;;;;7.93;7.23;;;20.10;1.00;;;;;;5113081;28;20172;-49
2023/06/12 05:19:53;;;;;;;8.10;7.50;;;20.20;1.00;;;;;;5109833;28;20437;-52
2023/06/12 05:22:19;;;;;;;8.20;7.50;;;20.20;1.00;;;;;;5107126;28;20510;-52
2023/06/12 05:24:45;;;;;;;8.37;7.77;;;20.30;1.00;;;;;;5109555;28;20573;-52
2023/06/12 05:27:11;;;;;;;8.73;8.13;;;20.30;1.00;;;;;;5111818;28;20438;-50
2023/06/12 05:29:37;;;;;;;8.27;7.57;;;20.30;1.00;;;;;;5110601;28;20372;-49
2023/06/12 05:32:04;;;;;;;7.77;7.17;;;20.40;1.00;;;;;;5110762;28;20527;-49
2023/06/12 05:34:33;;;;;;;8.00;7.20;;;20.40;1.00;;;;;;5113309;28;20577;-54
2023/06/12 05:36:59;;;;;;;8.60;7.90;;;20.50;1.00;;;;;;5114312;28;20713;-51
2023/06/12 05:39:25;;;;;;;8.23;7.53;;;20.40;1.00;;;;;;5114205;28;20618;-51
2023/06/12 05:41:50;;;;;;;8.57;7.87;;;20.40;1.00;;;;;;5113530;28;20528;-50
2023/06/12 05:44:16;;;;;;;8.13;7.33;;;20.40;1.00;;;;;;5115046;28;20468;-53
2023/06/12 05:46:43;;;;;;;10.90;9.17;;;20.50;1.00;;;;;;5113864;28;20187;-50
2023/06/12 05:49:08;;;;;;;8.37;7.63;;;20.50;1.00;;;;;;5115584;28;20176;-53
2023/06/12 05:51:35;;;;;;;7.97;7.30;;;20.60;1.00;;;;;;5113656;28;20469;-52
2023/06/12 05:54:01;;;;;;;8.40;7.80;;;20.60;1.00;;;;;;5113245;28;20486;-50
2023/06/12 05:56:27;;;;;;;8.60;7.90;;;20.60;1.00;;;;;;5115368;28;20461;-49
2023/06/12 05:58:52;;;;;;;8.40;7.80;;;20.70;1.00;;;;;;5114512;28;20179;-53
2023/06/12 06:01:21;;;;;;;8.30;7.60;;;20.80;1.00;;;;;;5112337;28;20831;-53
2023/06/12 06:03:48;;;;;;;9.37;8.57;;;20.90;1.00;;;;;;5113042;28;20178;-53
2023/06/12 06:06:16;;;;;;;9.50;8.80;;;20.90;1.00;;;;;;5113139;28;20840;-51
2023/06/12 06:08:42;;;;;;;8.43;7.73;;;20.90;1.00;;;;;;5113416;28;20430;-52
2023/06/12 06:11:08;;;;;;;10.60;9.60;;;20.90;1.00;;;;;;5112799;28;20483;-54
2023/06/12 06:13:34;;;;;;;9.90;9.00;;;20.90;1.00;;;;;;5111563;28;20418;-51
2023/06/12 06:16:02;;;;;;;9.83;8.67;;;21.00;1.00;;;;;;5113815;28;20410;-53
2023/06/12 06:18:28;;;;;;;8.47;7.83;;;21.10;1.00;;;;;;5113199;28;20447;-53
2023/06/12 06:20:54;;;;;;;9.07;8.37;;;21.20;1.00;;;;;;5112709;28;20439;-52
2023/06/12 06:23:21;;;;;;;8.90;8.20;;;21.30;1.00;;;;;;5111982;28;20523;-51
2023/06/12 06:25:47;;;;;;;8.97;8.17;;;21.40;1.00;;;;;;5111484;28;20244;-51
2023/06/12 06:28:13;;;;;;;9.20;8.50;;;21.50;1.00;;;;;;5110201;28;20425;-55
2023/06/12 06:30:38;;;;;;;8.73;7.90;;;21.40;1.00;;;;;;5110763;28;20208;-55
2023/06/12 06:33:04;;;;;;;8.83;8.23;;;21.50;1.00;;;;;;5110987;28;20556;-53
2023/06/12 06:35:30;;;;;;;8.73;8.03;;;21.50;1.00;;;;;;5111763;28;20192;-57
2023/06/12 06:37:56;;;;;;;9.57;8.67;;;21.60;1.00;;;;;;5111760;28;20198;-52
2023/06/12 06:40:21;;;;;;;8.37;7.77;;;21.80;1.00;;;;;;5112981;28;20210;-53
2023/06/12 06:42:47;;;;;;;9.00;8.10;;;21.90;1.00;;;;;;5112536;28;20556;-52
2023/06/12 06:45:13;;;;;;;8.93;8.03;;;22.00;1.00;;;;;;5113801;28;20188;-55
2023/06/12 06:47:38;;;;;;;9.73;8.83;;;22.20;1.00;;;;;;5113449;28;20243;-50
2023/06/12 06:50:05;;;;;;;9.77;8.97;;;22.30;1.00;;;;;;5113937;28;20262;-53
2023/06/12 06:52:30;;;;;;;11.63;8.50;;;22.40;1.00;;;;;;5112724;28;20549;-53
2023/06/12 06:54:56;;;;;;;9.17;8.40;;;22.50;1.00;;;;;;5113311;28;20416;-45
2023/06/12 06:57:23;;;;;;;8.47;7.77;;;22.50;1.00;;;;;;5112180;28;20267;-42
2023/06/12 06:59:50;;;;;;;8.97;8.27;;;22.50;1.00;;;;;;5111322;28;20191;-43
2023/06/12 07:02:16;;;;;;;8.17;7.57;;;22.60;1.00;;;;;;5111020;28;20440;-43
2023/06/12 07:04:42;;;;;;;9.57;8.77;;;22.60;1.00;;;;;;5112383;28;20429;-43
2023/06/12 07:07:08;;;;;;;9.07;8.37;;;22.70;1.00;;;;;;5110480;28;20542;-45
2023/06/12 07:09:34;;;;;;;9.03;8.23;;;22.70;1.00;;;;;;5112052;28;20640;-43
2023/06/12 07:11:59;;;;;;;8.30;7.60;;;22.60;1.00;;;;;;5110807;28;20237;-42
2023/06/12 07:14:25;;;;;;;9.53;8.73;;;22.80;1.00;;;;;;5109993;28;20445;-43
2023/06/12 07:16:51;;;;;;;10.10;9.20;;;22.90;1.00;;;;;;5110726;28;20599;-43
2023/06/12 07:19:16;;;;;;;9.30;8.60;;;22.90;1.00;;;;;;5110338;28;20225;-42
2023/06/12 07:21:42;;;;;;;10.10;9.23;;;23.00;1.00;;;;;;5110257;28;20255;-41
2023/06/12 07:24:07;;;;;;;9.43;8.63;;;23.10;1.00;;;;;;5110179;28;20649;-42
2023/06/12 07:26:33;;;;;;;8.60;7.90;;;23.10;1.00;;;;;;5112506;28;20194;-52
2023/06/12 07:28:58;;;;;;;8.40;7.60;;;23.20;1.00;;;;;;5111153;28;21138;-44
2023/06/12 07:31:27;;;;;;;10.93;8.80;;;23.40;1.00;;;;;;5111777;28;20214;-43
2023/06/12 07:33:53;;;;;;;9.10;8.30;;;23.50;1.00;;;;;;5112853;28;20199;-43
2023/06/12 07:36:18;;;;;;;9.07;8.17;;;23.70;1.00;;;;;;5114140;28;20456;-45
2023/06/12 07:38:44;;;;;;;10.03;9.20;;;23.90;1.00;;;;;;5113899;28;20187;-44
2023/06/12 07:41:10;;;;;;;9.23;8.40;;;24.20;1.00;;;;;;5113337;28;20176;-43
2023/06/12 07:43:35;;;;;;;10.03;9.33;;;24.30;1.00;;;;;;5111689;28;20530;-44
2023/06/12 07:46:01;;;;;;;9.37;8.57;;;24.50;1.00;;;;;;5113364;28;20198;-43
2023/06/12 07:48:27;;;;;;;9.67;8.97;;;24.70;1.00;;;;;;5114054;28;20184;-44
2023/06/12 07:50:53;;;;;;;10.17;9.17;;;24.80;1.00;;;;;;5117618;28;20735;-44
2023/06/12 07:53:18;;;;;;;10.10;9.30;;;24.90;1.00;;;;;;5114830;28;20256;-42
2023/06/12 07:55:44;;;;;;;10.70;9.80;;;24.90;1.00;;;;;;5116665;28;20591;-43
2023/06/12 07:58:10;;;;;;;9.50;8.70;;;25.00;1.00;;;;;;5116512;28;20406;-43
2023/06/12 08:00:36;;;;;;;8.83;8.20;;;24.90;1.00;;;;;;5116396;28;20211;-42
2023/06/12 08:03:03;;;;;;;9.10;8.40;;;24.70;1.00;;;;;;5114503;28;20461;-44
2023/06/12 08:05:29;;;;;;;9.10;8.30;;;24.60;1.00;;;;;;5114967;28;20211;-42
2023/06/12 08:07:55;;;;;;;9.43;8.73;;;24.90;1.00;;;;;;5114133;28;20441;-46
2023/06/12 08:10:21;;;;;;;10.43;8.50;;;25.20;1.00;;;;;;5116012;27;20972;-45
2023/06/12 08:12:46;;;;;;;9.03;8.20;;;25.70;1.00;;;;;;5115225;28;20417;-43
2023/06/12 08:15:13;;;;;;;8.70;7.90;;;26.10;1.00;;;;;;5115635;28;20168;-44
2023/06/12 08:17:41;;;;;;;8.93;8.33;;;26.50;1.00;;;;;;5114835;28;20172;-45
2023/06/12 08:20:09;;;;;;;10.63;8.47;;;26.60;1.00;;;;;;5116582;28;20424;-43
2023/06/12 08:22:35;;;;;;;9.20;8.50;;;26.80;1.00;;;;;;5116565;28;20668;-44
2023/06/12 08:25:03;;;;;;;9.90;9.00;;;26.70;1.00;;;;;;5115904;28;20424;-46
2023/06/12 08:27:29;;;;;;;9.10;8.40;;;26.60;1.00;;;;;;5115422;28;20430;-43
2023/06/12 08:29:54;;;;;;;8.20;7.50;;;26.40;1.00;;;;;;5115635;28;20827;-45
2023/06/12 08:32:24;;;;;;;8.30;7.60;;;26.30;1.00;;;;;;5115469;28;20182;-44
2023/06/12 08:34:50;;;;;;;8.00;7.30;;;26.50;1.00;;;;;;5115014;28;20183;-44
2023/06/12 08:37:17;;;;;;;7.80;7.30;;;26.70;1.00;;;;;;5115205;28;20437;-43
2023/06/12 08:39:43;;;;;;;7.97;7.47;;;27.00;1.00;;;;;;5114942;28;20841;-44
2023/06/12 08:42:10;;;;;;;8.90;8.00;;;26.80;1.00;;;;;;5115283;28;20532;-45
2023/06/12 08:44:38;;;;;;;8.67;7.97;;;26.60;1.00;;;;;;5115887;28;20191;-43
2023/06/12 08:47:04;;;;;;;9.17;8.27;;;26.50;1.00;;;;;;5114012;28;20421;-42
2023/06/12 08:49:30;;;;;;;8.63;7.83;;;26.30;1.00;;;;;;5115305;28;20485;-42
2023/06/12 08:51:56;;;;;;;8.43;7.73;;;25.90;1.00;;;;;;5115493;28;20902;-45
2023/06/12 08:54:22;;;;;;;8.30;7.07;;;25.60;1.00;;;;;;5114385;28;20453;-43
2023/06/12 08:56:47;;;;;;;8.00;7.20;;;25.80;1.00;;;;;;5114497;28;20520;-45
2023/06/12 08:59:14;;;;;;;7.83;7.20;;;26.30;1.00;;;;;;5114262;28;20191;-45
2023/06/12 09:01:40;;;;;;;8.50;7.80;;;26.80;1.00;;;;;;5113973;28;20172;-45
2023/06/12 09:04:28;;;;;;;7.47;6.77;;;26.80;1.00;;;;;;5115950;28;20412;-45
2023/06/12 09:07:01;;;;;;;7.37;6.77;;;27.10;1.00;;;;;;5115318;28;20707;-44
2023/06/12 09:09:35;;;;;;;7.87;7.27;;;27.40;1.00;;;;;;5114545;28;20494;-45
2023/06/12 09:12:01;;;;;;;7.73;7.13;;;27.90;1.00;;;;;;5115166;28;20401;-46
2023/06/12 09:14:26;;;;;;;8.43;7.83;;;27.80;1.00;;;;;;5113721;28;20506;-44
2023/06/12 09:16:52;;;;;;;8.53;7.73;;;28.10;1.00;;;;;;5113947;28;20188;-44
2023/06/12 09:19:18;;;;;;;8.53;7.83;;;28.10;1.00;;;;;;5096776;28;20221;-45
2023/06/12 09:21:46;;;;;;;10.33;8.47;;;27.90;1.00;;;;;;5115272;28;20410;-43
2023/06/12 09:24:15;;;;;;;8.83;8.10;;;27.70;1.00;;;;;;5115000;28;20195;-43
2023/06/12 09:26:42;;;;;;;8.67;7.87;;;27.90;1.00;;;;;;5113523;28;20479;-42
2023/06/12 09:29:07;;;;;;;9.40;8.50;;;27.80;1.00;;;;;;5114919;28;20531;-45
2023/06/12 09:31:33;;;;;;;8.83;8.13;;;27.30;1.00;;;;;;5114393;28;20413;-42
2023/06/12 09:33:59;;;;;;;8.70;7.97;;;26.90;1.00;;;;;;5113988;28;20471;-44
2023/06/12 09:36:30;;;;;;;8.43;7.70;;;27.30;1.00;;;;;;5093692;28;20536;-44
2023/06/12 09:38:56;;;;;;;9.40;8.60;;;28.00;1.00;;;;;;5113350;28;20171;-44
2023/06/12 09:41:24;;;;;;;11.20;8.90;;;28.80;1.00;;;;;;5113562;28;20755;-44
2023/06/12 09:44:00;;;;;;;8.67;7.97;;;28.90;1.00;;;;;;5115378;28;20168;-43
2023/06/12 09:46:26;;;;;;;13.30;9.30;;;29.00;1.00;;;;;;5115362;28;20388;-43
2023/06/12 09:48:55;;;;;;;9.20;8.50;;;29.00;1.00;;;;;;5114752;28;20440;-42
2023/06/12 09:51:21;;;;;;;8.70;8.10;;;29.20;1.00;;;;;;5113427;28;20485;-44
2023/06/12 09:53:49;;;;;;;8.67;7.87;;;29.20;1.00;;;;;;5113839;28;20887;-41
2023/06/12 09:56:15;;;;;;;9.27;8.53;;;29.20;1.00;;;;;;5113245;28;20528;-44
2023/06/12 09:58:47;;;;;;;8.97;8.23;;;29.50;1.00;;;;;;5115224;28;20418;-42
2023/06/12 10:01:13;;;;;;;8.83;8.13;;;29.70;1.00;;;;;;5113583;28;20405;-43
2023/06/12 10:03:42;;;;;;;8.40;7.80;;;29.70;1.00;;;;;;5110523;28;20599;-42
2023/06/12 10:06:10;;;;;;;8.23;7.63;;;29.10;1.00;;;;;;5112045;28;20290;-43
2023/06/12 10:08:36;;;;;;;7.93;7.30;;;28.40;1.00;;;;;;5110149;28;20870;-43
2023/06/12 10:11:05;;;;;;;8.83;8.13;;;28.00;1.00;;;;;;5110085;28;20477;-42
2023/06/12 10:13:31;;;;;;;9.70;8.80;;;27.40;1.00;;;;;;5109995;28;20470;-43
2023/06/12 10:15:57;;;;;;;8.57;7.97;;;27.50;1.00;;;;;;5111093;28;20807;-43
2023/06/12 10:18:24;;;;;;;9.20;8.50;;;28.10;1.00;;;;;;5110773;28;20426;-44
2023/06/12 10:20:50;;;;;;;9.70;8.90;;;28.60;1.00;;;;;;5096339;28;20437;-45
2023/06/12 10:23:19;;;;;;;8.80;8.10;;;29.40;1.00;;;;;;5113113;28;20431;-44
2023/06/12 10:25:46;;;;;;;8.53;7.83;;;30.20;1.00;;;;;;5111996;28;20433;-44
2023/06/12 10:28:11;;;;;;;8.70;7.90;;;29.90;1.00;;;;;;5112011;28;20508;-42
2023/06/12 10:30:37;;;;;;;8.30;7.70;;;29.70;1.00;;;;;;5104738;28;20581;-43
2023/06/12 10:33:13;;;;;;;9.07;8.37;;;29.90;1.00;;;;;;5112711;28;20207;-47
2023/06/12 10:35:39;;;;;;;8.47;7.77;;;30.30;1.00;;;;;;5113690;28;20457;-43
2023/06/12 10:38:05;;;;;;;8.37;7.67;;;30.00;1.00;;;;;;5113804;28;20426;-44
2023/06/12 10:40:31;;;;;;;8.53;7.70;;;30.10;1.00;;;;;;5114113;28;20401;-43
2023/06/12 10:43:04;;;;;;;8.60;8.00;;;30.60;1.00;;;;;;5110918;28;20490;-44
2023/06/12 10:45:32;;;;;;;8.17;7.47;;;31.10;1.00;;;;;;5112953;28;20396;-43
2023/06/12 10:48:04;;;;;;;8.87;8.17;;;31.40;1.00;;;;;;5112413;28;20425;-44
2023/06/12 10:50:37;;;;;;;9.33;8.63;;;31.00;1.00;;;;;;5110608;28;20458;-45
2023/06/12 10:53:07;;;;;;;9.13;8.43;;;30.90;1.00;;;;;;5114027;28;20412;-45
2023/06/12 10:55:34;;;;;;;9.00;8.30;;;30.10;1.00;;;;;;5097329;28;20853;-44
2023/06/12 10:58:06;;;;;;;8.77;8.17;;;29.60;1.00;;;;;;5090809;28;20441;-43
2023/06/12 11:00:37;;;;;;;8.50;7.80;;;29.40;1.00;;;;;;5090524;28;20401;-45
2023/06/12 11:03:10;;;;;;;8.40;7.80;;;29.90;1.00;;;;;;5089044;28;20479;-42
2023/06/12 11:05:36;;;;;;;8.90;8.20;;;30.30;1.00;;;;;;5090466;28;20458;-44
2023/06/12 11:08:03;;;;;;;8.20;7.50;;;30.90;1.00;;;;;;5090476;28;20651;-46
2023/06/12 11:10:30;;;;;;;8.57;7.83;;;31.30;1.00;;;;;;5089745;28;20231;-46
2023/06/12 11:12:57;;;;;;;8.80;8.00;;;31.20;1.00;;;;;;5093407;28;20835;-43
2023/06/12 11:15:23;;;;;;;8.40;7.60;;;30.70;1.00;;;;;;5092771;28;20474;-44
2023/06/12 11:17:52;;;;;;;9.77;8.97;;;30.70;1.00;;;;;;5093376;28;20416;-45
2023/06/12 11:20:22;;;;;;;8.63;7.97;;;31.00;1.00;;;;;;5093142;28;20541;-44
2023/06/12 11:22:49;;;;;;;8.80;8.17;;;31.40;1.00;;;;;;5091556;28;20405;-43
2023/06/12 11:25:18;;;;;;;9.17;8.37;;;31.30;1.00;;;;;;5093794;28;20462;-44
2023/06/12 11:27:44;;;;;;;8.33;7.60;;;31.30;1.00;;;;;;5094111;28;20475;-44
2023/06/12 11:30:11;;;;;;;8.97;8.07;;;31.30;1.00;;;;;;5092965;28;20478;-45
2023/06/12 11:32:36;;;;;;;7.83;7.33;;;31.50;1.00;;;;;;5093135;28;20266;-45
2023/06/12 11:35:04;;;;;;;7.60;7.00;;;31.40;1.00;;;;;;5094735;28;20521;-43
2023/06/12 11:37:30;;;;;;;8.20;7.60;;;31.40;1.00;;;;;;5095758;28;20668;-45
2023/06/12 11:40:14;;;;;;;8.87;8.10;;;31.70;1.00;;;;;;5094014;28;20392;-42
2023/06/12 11:42:41;;;;;;;8.53;7.93;;;32.10;1.00;;;;;;5094510;28;20400;-44
2023/06/12 11:45:11;;;;;;;8.07;7.57;;;32.30;1.00;;;;;;5094326;28;20495;-43
2023/06/12 11:47:45;;;;;;;8.03;7.43;;;32.80;1.00;;;;;;5092674;28;20430;-43
2023/06/12 11:50:16;;;;;;;8.80;8.10;;;33.40;1.00;;;;;;5094940;28;20480;-42
2023/06/12 11:52:44;;;;;;;8.37;7.77;;;33.70;1.00;;;;;;5094050;28;20474;-43
2023/06/12 11:55:17;;;;;;;8.63;8.00;;;34.00;1.00;;;;;;5093451;28;20397;-42
2023/06/12 11:57:48;;;;;;;8.70;8.00;;;34.00;1.00;;;;;;5095698;28;20395;-42
2023/06/12 12:00:16;;;;;;;8.70;8.00;;;34.30;1.00;;;;;;5093747;28;20438;-45
2023/06/12 12:02:51;;;;;;;9.47;8.77;;;34.30;1.00;;;;;;5095406;28;20433;-43
2023/06/12 12:05:22;;;;;;;8.90;8.20;;;34.40;1.00;;;;;;5094181;28;20393;-45
2023/06/12 12:07:56;;;;;;;9.20;8.30;;;33.80;1.00;;;;;;5095220;28;20636;-46
2023/06/12 12:10:21;;;;;;;10.40;8.73;;;33.40;1.00;;;;;;5095514;28;20439;-45
2023/06/12 12:12:52;;;;;;;8.30;7.60;;;33.50;1.00;;;;;;5096098;28;20385;-44
2023/06/12 12:15:20;;;;;;;8.70;8.00;;;33.90;1.00;;;;;;5093772;28;20430;-44
2023/06/12 12:17:46;;;;;;;9.37;8.70;;;34.40;1.00;;;;;;5095234;28;20422;-43
2023/06/12 12:20:17;;;;;;;8.00;7.30;;;34.30;1.00;;;;;;5095992;28;20487;-44
2023/06/12 12:22:46;;;;;;;8.60;7.70;;;33.90;1.00;;;;;;5095704;28;20429;-43
2023/06/12 12:25:21;;;;;;;9.00;8.30;;;34.20;1.00;;;;;;5093896;28;20473;-43
2023/06/12 12:27:49;;;;;;;21.13;10.00;;;34.60;1.00;;;;;;5095378;28;20424;-45
2023/06/12 12:30:15;;;;;;;8.27;7.57;;;35.10;1.00;;;;;;5092775;28;20474;-42
2023/06/12 12:32:46;;;;;;;8.23;7.57;;;34.80;1.00;;;;;;5094216;28;21006;-43
2023/06/12 12:35:13;;;;;;;8.50;7.70;;;34.70;1.00;;;;;;5094352;28;20521;-44
2023/06/12 12:37:39;;;;;;;8.47;7.73;;;35.00;1.00;;;;;;5093651;28;20401;-43
2023/06/12 12:40:09;;;;;;;9.40;8.60;;;34.30;1.00;;;;;;5094852;28;20640;-44
2023/06/12 12:42:35;;;;;;;8.07;7.37;;;33.40;1.00;;;;;;5094200;28;20442;-43
2023/06/12 12:45:01;;;;;;;13.23;9.40;;;32.90;1.00;;;;;;5094926;28;20463;-45
2023/06/12 12:47:26;;;;;;;9.07;8.33;;;32.90;1.00;;;;;;5094877;28;20430;-44
2023/06/12 12:49:52;;;;;;;8.90;8.10;;;33.10;1.00;;;;;;5094594;28;20226;-44
2023/06/12 12:52:18;;;;;;;9.47;8.53;;;32.20;1.00;;;;;;5094717;28;20286;-45
2023/06/12 12:54:46;;;;;;;9.00;8.20;;;31.80;1.00;;;;;;5093761;28;20230;-44
2023/06/12 12:57:12;;;;;;;9.13;8.23;;;31.80;1.00;;;;;;5095952;28;20447;-46